createdAt,value
2022-08-28T00:01:38.507Z,74.40
2022-08-28T00:03:30.349Z,74.20
2022-08-28T00:05:24.016Z,74.20
2022-08-28T00:07:14.359Z,74.20
2022-08-28T00:09:05.454Z,74.20
2022-08-28T00:10:56.434Z,74.20
2022-08-28T00:12:48.290Z,74.10
2022-08-28T00:14:39.139Z,74.20
2022-08-28T00:16:29.650Z,74.30
2022-08-28T00:18:20.146Z,74.50
2022-08-28T00:20:12.926Z,74.40
2022-08-28T00:22:04.756Z,74.50
2022-08-28T00:23:55.242Z,74.50
2022-08-28T00:25:46.064Z,74.70
2022-08-28T00:27:36.770Z,74.50
2022-08-28T00:29:27.859Z,74.70
2022-08-28T00:31:18.103Z,75.00
2022-08-28T00:33:11.552Z,75.20
2022-08-28T00:35:02.277Z,75.30
2022-08-28T00:36:52.702Z,75.40
2022-08-28T00:38:44.559Z,75.30
2022-08-28T00:40:35.265Z,75.20
2022-08-28T00:42:27.150Z,75.40
2022-08-28T00:44:20.371Z,75.50
2022-08-28T00:46:13.701Z,75.40
2022-08-28T00:48:05.043Z,75.30
2022-08-28T00:49:56.599Z,75.30
2022-08-28T00:51:48.448Z,75.20
2022-08-28T00:53:39.139Z,75.00
2022-08-28T00:55:31.131Z,75.10
2022-08-28T00:57:27.012Z,75.20
2022-08-28T00:59:20.126Z,75.00
2022-08-28T01:01:11.149Z,75.20
2022-08-28T01:03:01.865Z,74.80
2022-08-28T01:04:52.514Z,75.10
2022-08-28T01:06:43.479Z,75.10
2022-08-28T01:08:34.495Z,75.50
2022-08-28T01:10:26.835Z,75.60
2022-08-28T01:12:19.949Z,75.70
2022-08-28T01:14:10.949Z,76.00
2022-08-28T01:16:01.917Z,76.10
2022-08-28T01:17:54.508Z,76.10
2022-08-28T01:19:47.882Z,76.20
2022-08-28T01:21:46.659Z,75.90
2022-08-28T01:23:48.382Z,75.90
2022-08-28T01:25:39.643Z,76.00
2022-08-28T01:27:29.948Z,76.00
2022-08-28T01:29:20.395Z,76.00
2022-08-28T01:31:12.287Z,75.90
2022-08-28T01:33:02.802Z,76.00
2022-08-28T01:34:53.847Z,75.90
2022-08-28T01:36:44.592Z,75.80
2022-08-28T01:38:35.047Z,75.80
2022-08-28T01:40:30.697Z,76.00
2022-08-28T01:42:21.587Z,76.10
2022-08-28T01:44:13.356Z,76.10
2022-08-28T01:46:05.855Z,76.10
2022-08-28T01:47:56.134Z,76.10
2022-08-28T01:49:46.524Z,76.10
2022-08-28T01:51:38.093Z,76.10
2022-08-28T01:53:32.493Z,76.30
2022-08-28T01:55:23.632Z,76.00
2022-08-28T01:57:18.576Z,76.20
2022-08-28T01:59:11.111Z,76.10
2022-08-28T02:01:01.657Z,76.20
2022-08-28T02:02:52.010Z,76.30
2022-08-28T02:04:46.152Z,76.30
2022-08-28T02:06:38.379Z,76.40
2022-08-28T02:08:28.705Z,76.60
2022-08-28T02:10:19.693Z,76.90
2022-08-28T02:12:10.230Z,76.40
2022-08-28T02:14:02.328Z,76.70
2022-08-28T02:15:52.976Z,76.70
2022-08-28T02:17:43.439Z,76.60
2022-08-28T02:19:33.868Z,76.80
2022-08-28T02:21:24.459Z,76.70
2022-08-28T02:23:15.092Z,76.50
2022-08-28T02:25:06.695Z,76.70
2022-08-28T02:26:57.186Z,76.40
2022-08-28T02:28:47.590Z,76.70
2022-08-28T02:30:39.754Z,77.00
2022-08-28T02:32:30.249Z,77.30
2022-08-28T02:34:20.583Z,77.40
2022-08-28T02:36:12.693Z,77.60
2022-08-28T02:38:03.041Z,77.40
2022-08-28T02:39:55.947Z,77.10
2022-08-28T02:41:46.333Z,77.00
2022-08-28T02:43:36.580Z,76.90
2022-08-28T02:45:26.912Z,77.10
2022-08-28T02:47:18.771Z,77.10
2022-08-28T02:49:09.448Z,77.10
2022-08-28T02:51:01.298Z,77.10
2022-08-28T02:52:52.127Z,77.00
2022-08-28T02:54:43.013Z,77.00
2022-08-28T02:56:33.755Z,77.20
2022-08-28T02:58:24.788Z,77.10
2022-08-28T03:00:18.973Z,77.10
2022-08-28T03:02:09.456Z,77.30
2022-08-28T03:04:01.881Z,77.60
2022-08-28T03:05:52.591Z,77.40
2022-08-28T03:07:43.008Z,77.70
2022-08-28T03:09:33.694Z,77.70
2022-08-28T03:11:24.069Z,77.90
2022-08-28T03:13:27.309Z,78.20
2022-08-28T03:15:18.364Z,78.30
2022-08-28T03:17:09.111Z,78.50
2022-08-28T03:19:01.119Z,78.50
2022-08-28T03:20:51.933Z,78.50
2022-08-28T03:22:42.462Z,78.60
2022-08-28T03:24:32.759Z,78.60
2022-08-28T03:26:23.351Z,78.40
2022-08-28T03:28:13.797Z,78.40
2022-08-28T03:30:04.944Z,78.50
2022-08-28T03:31:55.334Z,78.40
2022-08-28T03:33:46.258Z,78.50
2022-08-28T03:35:38.293Z,78.40
2022-08-28T03:37:28.870Z,78.40
2022-08-28T03:39:19.287Z,78.70
2022-08-28T03:41:11.014Z,79.20
2022-08-28T03:43:01.548Z,80.00
2022-08-28T03:44:52.190Z,80.60
2022-08-28T03:46:43.004Z,80.40
2022-08-28T03:48:36.869Z,80.10
2022-08-28T03:50:27.596Z,80.00
2022-08-28T03:52:21.594Z,80.00
2022-08-28T03:54:11.895Z,79.60
2022-08-28T03:56:05.423Z,79.50
2022-08-28T03:57:56.044Z,79.20
2022-08-28T03:59:46.886Z,79.10
2022-08-28T04:01:37.375Z,79.20
2022-08-28T04:03:28.264Z,79.30
2022-08-28T04:05:19.037Z,79.40
2022-08-28T04:07:09.733Z,79.30
2022-08-28T04:09:01.454Z,79.50
2022-08-28T04:10:52.660Z,79.60
2022-08-28T04:12:43.599Z,79.30
2022-08-28T04:14:34.588Z,79.50
2022-08-28T04:16:25.285Z,79.60
2022-08-28T04:18:16.007Z,80.00
2022-08-28T04:20:08.410Z,80.10
2022-08-28T04:21:58.830Z,80.40
2022-08-28T04:23:50.270Z,80.60
2022-08-28T04:25:42.184Z,80.50
2022-08-28T04:27:32.762Z,80.30
2022-08-28T04:29:23.516Z,79.90
2022-08-28T04:31:14.022Z,80.00
2022-08-28T04:33:04.802Z,80.00
2022-08-28T04:34:55.580Z,80.10
2022-08-28T04:36:46.821Z,80.20
2022-08-28T04:38:42.991Z,80.40
2022-08-28T04:40:34.346Z,80.50
2022-08-28T04:42:26.543Z,80.50
2022-08-28T04:44:17.279Z,80.40
2022-08-28T04:46:09.956Z,80.20
2022-08-28T04:48:00.412Z,79.80
2022-08-28T04:49:55.957Z,80.00
2022-08-28T04:51:46.996Z,80.20
2022-08-28T04:53:38.654Z,79.80
2022-08-28T04:55:53.634Z,79.60
2022-08-28T04:57:41.026Z,79.80
2022-08-28T04:59:31.335Z,79.80
2022-08-28T05:01:24.183Z,79.90
2022-08-28T05:03:15.875Z,79.80
2022-08-28T05:05:07.153Z,79.80
2022-08-28T05:06:57.971Z,79.60
2022-08-28T05:08:48.675Z,79.80
2022-08-28T05:10:39.848Z,80.10
2022-08-28T05:12:30.222Z,80.20
2022-08-28T05:14:21.958Z,80.00
2022-08-28T05:16:12.632Z,80.00
2022-08-28T05:18:04.989Z,79.80
2022-08-28T05:19:55.685Z,79.60
2022-08-28T05:21:46.118Z,79.60
2022-08-28T05:23:37.043Z,79.70
2022-08-28T05:25:27.656Z,79.60
2022-08-28T05:27:18.041Z,79.80
2022-08-28T05:29:09.492Z,79.70
2022-08-28T05:31:10.279Z,79.60
2022-08-28T05:33:01.018Z,79.60
2022-08-28T05:34:51.875Z,79.50
2022-08-28T05:36:42.350Z,79.40
2022-08-28T05:38:33.755Z,79.60
2022-08-28T05:40:24.445Z,79.70
2022-08-28T05:42:14.986Z,79.80
2022-08-28T05:44:07.168Z,79.30
2022-08-28T05:45:58.659Z,79.30
2022-08-28T05:47:50.708Z,79.10
2022-08-28T05:49:41.085Z,79.10
2022-08-28T05:51:31.549Z,79.40
2022-08-28T05:53:22.511Z,79.50
2022-08-28T05:55:15.275Z,79.30
2022-08-28T05:57:06.100Z,79.10
2022-08-28T05:58:56.846Z,78.50
2022-08-28T06:00:47.419Z,78.30
2022-08-28T06:02:37.765Z,78.40
2022-08-28T06:04:30.121Z,78.30
2022-08-28T06:06:20.865Z,77.90
2022-08-28T06:08:11.748Z,78.00
2022-08-28T06:10:02.526Z,78.10
2022-08-28T06:11:54.289Z,77.90
2022-08-28T06:13:44.688Z,77.80
2022-08-28T06:15:40.409Z,77.80
2022-08-28T06:17:31.069Z,77.70
2022-08-28T06:19:23.023Z,77.60
2022-08-28T06:21:14.960Z,77.70
2022-08-28T06:23:05.751Z,77.60
2022-08-28T06:24:56.306Z,77.60
2022-08-28T06:26:46.793Z,77.70
2022-08-28T06:28:37.193Z,77.70
2022-08-28T06:30:27.672Z,77.60
2022-08-28T06:32:20.774Z,77.30
2022-08-28T06:34:11.395Z,77.00
2022-08-28T06:36:04.195Z,77.00
2022-08-28T06:37:56.709Z,77.20
2022-08-28T06:39:47.078Z,76.70
2022-08-28T06:41:37.417Z,76.30
2022-08-28T06:43:29.086Z,76.60
2022-08-28T06:45:19.770Z,76.00
2022-08-28T06:47:10.219Z,75.80
2022-08-28T06:49:02.273Z,75.70
2022-08-28T06:50:53.923Z,75.80
2022-08-28T06:52:44.355Z,75.50
2022-08-28T06:54:36.365Z,75.30
2022-08-28T06:56:28.514Z,75.10
2022-08-28T06:58:19.030Z,74.80
2022-08-28T07:00:10.789Z,74.70
2022-08-28T07:02:01.473Z,74.80
2022-08-28T07:03:53.953Z,74.80
2022-08-28T07:05:44.442Z,74.60
2022-08-28T07:07:35.094Z,74.60
2022-08-28T07:09:25.519Z,74.60
2022-08-28T07:11:20.235Z,74.40
2022-08-28T07:13:10.759Z,74.40
2022-08-28T07:15:01.194Z,74.40
2022-08-28T07:16:52.016Z,74.20
2022-08-28T07:18:43.078Z,74.20
2022-08-28T07:20:33.685Z,73.90
2022-08-28T07:22:24.485Z,73.90
2022-08-28T07:24:16.042Z,74.00
2022-08-28T07:26:09.911Z,73.30
2022-08-28T07:28:01.645Z,73.00
2022-08-28T07:29:52.187Z,72.60
2022-08-28T07:31:46.545Z,72.40
2022-08-28T07:33:38.194Z,72.50
2022-08-28T07:35:28.726Z,72.80
2022-08-28T07:37:19.451Z,73.10
2022-08-28T07:39:11.535Z,73.00
2022-08-28T07:41:02.000Z,72.70
2022-08-28T07:42:52.532Z,72.70
2022-08-28T07:44:44.740Z,72.90
2022-08-28T07:46:36.804Z,72.90
2022-08-28T07:48:27.332Z,72.90
2022-08-28T07:50:18.103Z,72.30
2022-08-28T07:52:09.260Z,71.70
2022-08-28T07:54:00.033Z,71.00
2022-08-28T07:55:51.230Z,71.30
2022-08-28T07:57:41.916Z,71.50
2022-08-28T07:59:36.797Z,71.20
2022-08-28T08:01:30.728Z,70.30
2022-08-28T08:03:22.252Z,70.10
2022-08-28T08:05:12.708Z,70.30
2022-08-28T08:07:04.869Z,70.40
2022-08-28T08:08:55.264Z,70.10
2022-08-28T08:10:45.734Z,69.40
2022-08-28T08:12:36.618Z,68.70
2022-08-28T08:14:28.505Z,68.40
2022-08-28T08:16:21.181Z,68.00
2022-08-28T08:18:13.276Z,67.90
2022-08-28T08:20:06.141Z,67.80
2022-08-28T08:21:56.571Z,67.70
2022-08-28T08:23:47.480Z,67.90
2022-08-28T08:25:37.979Z,67.60
2022-08-28T08:27:28.400Z,67.40
2022-08-28T08:29:18.877Z,66.60
2022-08-28T08:31:11.035Z,66.00
2022-08-28T08:33:01.578Z,65.90
2022-08-28T08:34:56.948Z,66.00
2022-08-28T08:36:47.157Z,66.00
2022-08-28T08:38:38.116Z,65.80
2022-08-28T08:40:29.047Z,65.70
2022-08-28T08:42:23.074Z,66.00
2022-08-28T08:44:22.404Z,65.30
2022-08-28T08:46:13.339Z,64.50
2022-08-28T08:48:04.048Z,64.60
2022-08-28T08:49:57.669Z,65.40
2022-08-28T08:51:54.978Z,65.90
2022-08-28T08:53:51.009Z,65.60
2022-08-28T08:55:44.523Z,65.00
2022-08-28T08:57:36.842Z,65.10
2022-08-28T08:59:27.276Z,65.00
2022-08-28T09:01:21.799Z,64.70
2022-08-28T09:03:15.948Z,64.50
2022-08-28T09:05:11.158Z,63.10
2022-08-28T09:07:04.522Z,62.80
2022-08-28T09:08:59.129Z,62.50
2022-08-28T09:10:59.418Z,62.40
2022-08-28T09:12:52.991Z,62.50
2022-08-28T09:14:52.851Z,62.30
2022-08-28T09:16:44.655Z,61.40
2022-08-28T09:18:35.821Z,61.80
2022-08-28T09:20:33.287Z,61.60
2022-08-28T09:22:25.253Z,62.00
2022-08-28T09:24:22.003Z,61.50
2022-08-28T09:26:22.446Z,61.50
2022-08-28T09:28:18.422Z,61.60
2022-08-28T09:30:10.321Z,61.60
2022-08-28T09:32:21.961Z,61.80
2022-08-28T09:34:23.592Z,61.90
2022-08-28T09:36:30.879Z,61.00
2022-08-28T09:38:23.068Z,61.40
2022-08-28T09:40:24.214Z,61.80
2022-08-28T09:42:18.014Z,61.80
2022-08-28T09:44:14.511Z,61.60
2022-08-28T09:46:08.989Z,61.10
2022-08-28T09:48:00.204Z,60.80
2022-08-28T09:49:50.701Z,60.60
2022-08-28T09:51:42.481Z,59.40
2022-08-28T09:53:34.096Z,59.10
2022-08-28T09:55:33.899Z,59.90
2022-08-28T09:57:24.638Z,59.70
2022-08-28T09:59:17.236Z,59.90
2022-08-28T10:01:32.573Z,59.40
2022-08-28T10:03:28.671Z,59.40
2022-08-28T10:05:29.115Z,58.40
2022-08-28T10:07:29.753Z,59.10
2022-08-28T10:09:28.267Z,59.10
2022-08-28T10:11:24.563Z,59.00
2022-08-28T10:13:17.232Z,58.70
2022-08-28T10:15:12.412Z,58.80
2022-08-28T10:17:11.700Z,58.60
2022-08-28T10:19:19.334Z,59.10
2022-08-28T10:21:14.431Z,59.50
2022-08-28T10:23:13.395Z,59.40
2022-08-28T10:25:16.569Z,58.30
2022-08-28T10:27:13.882Z,58.00
2022-08-28T10:29:27.305Z,57.30
2022-08-28T10:31:39.025Z,57.30
2022-08-28T10:33:50.035Z,57.50
2022-08-28T10:35:50.612Z,56.90
2022-08-28T10:37:49.310Z,56.80
2022-08-28T10:39:49.588Z,57.50
2022-08-28T10:41:43.477Z,57.50
2022-08-28T10:43:36.973Z,57.50
2022-08-28T10:45:29.371Z,57.30
2022-08-28T10:47:20.735Z,56.70
2022-08-28T10:49:19.596Z,57.00
2022-08-28T10:51:14.381Z,56.50
2022-08-28T10:53:07.307Z,57.20
2022-08-28T10:55:04.176Z,56.60
2022-08-28T10:56:59.858Z,56.70
2022-08-28T10:58:55.696Z,56.00
2022-08-28T11:00:46.809Z,57.00
2022-08-28T11:02:37.526Z,57.60
2022-08-28T11:04:28.277Z,58.20
2022-08-28T11:06:27.047Z,56.80
2022-08-28T11:08:24.765Z,56.60
2022-08-28T11:10:20.859Z,56.70
2022-08-28T11:12:36.206Z,56.90
2022-08-28T11:14:30.465Z,57.30
2022-08-28T11:16:23.836Z,57.00
2022-08-28T11:18:49.521Z,56.90
2022-08-28T11:20:40.854Z,57.00
2022-08-28T11:22:36.456Z,57.10
2022-08-28T11:24:34.896Z,57.20
2022-08-28T11:26:32.412Z,57.40
2022-08-28T11:28:42.093Z,56.90
2022-08-28T11:30:35.003Z,57.30
2022-08-28T11:32:41.521Z,57.90
2022-08-28T11:34:56.464Z,57.10
2022-08-28T11:37:01.873Z,56.20
2022-08-28T11:39:20.415Z,55.80
2022-08-28T11:41:12.904Z,53.90
2022-08-28T11:43:32.158Z,53.10
2022-08-28T11:46:01.223Z,52.90
2022-08-28T11:47:53.483Z,54.10
2022-08-28T11:49:45.107Z,52.80
2022-08-28T11:51:49.692Z,52.20
2022-08-28T11:53:49.399Z,53.10
2022-08-28T11:56:39.149Z,53.80
2022-08-28T11:58:34.562Z,54.10
2022-08-28T12:00:32.972Z,52.70
2022-08-28T12:02:48.563Z,52.70
2022-08-28T12:04:42.292Z,52.80
2022-08-28T12:06:47.118Z,53.80
2022-08-28T12:09:10.971Z,53.60
2022-08-28T12:11:01.738Z,55.00
2022-08-28T12:12:54.534Z,55.00
2022-08-28T12:15:08.525Z,55.10
2022-08-28T12:17:16.942Z,55.00
2022-08-28T12:19:07.677Z,55.30
2022-08-28T12:21:00.289Z,56.70
2022-08-28T12:22:53.319Z,55.70
2022-08-28T12:24:47.723Z,53.60
2022-08-28T12:26:41.969Z,53.50
2022-08-28T12:28:35.358Z,54.40
2022-08-28T12:30:33.868Z,53.50
2022-08-28T12:32:30.113Z,54.10
2022-08-28T12:34:29.569Z,54.20
2022-08-28T12:36:21.651Z,54.50
2022-08-28T12:38:19.434Z,55.70
2022-08-28T12:40:16.590Z,55.40
2022-08-28T12:42:15.144Z,55.80
2022-08-28T12:44:05.834Z,55.10
2022-08-28T12:46:00.290Z,55.10
2022-08-28T12:47:51.988Z,53.70
2022-08-28T12:49:42.855Z,51.30
2022-08-28T12:51:35.151Z,51.40
2022-08-28T12:53:26.252Z,53.00
2022-08-28T12:55:22.449Z,53.40
2022-08-28T12:57:16.576Z,53.90
2022-08-28T12:59:27.141Z,53.50
2022-08-28T13:01:28.082Z,54.40
2022-08-28T13:03:19.106Z,54.50
2022-08-28T13:05:11.260Z,55.10
2022-08-28T13:07:07.801Z,55.00
2022-08-28T13:09:00.912Z,55.20
2022-08-28T13:10:52.007Z,55.00
2022-08-28T13:12:54.722Z,55.00
2022-08-28T13:14:46.865Z,55.30
2022-08-28T13:16:41.675Z,55.40
2022-08-28T13:18:45.477Z,55.40
2022-08-28T13:20:37.664Z,55.90
2022-08-28T13:22:33.366Z,54.90
2022-08-28T13:24:28.514Z,54.40
2022-08-28T13:26:25.208Z,53.70
2022-08-28T13:28:17.443Z,53.00
2022-08-28T13:30:20.088Z,52.90
2022-08-28T13:32:16.829Z,52.50
2022-08-28T13:34:11.083Z,52.20
2022-08-28T13:36:19.845Z,53.20
2022-08-28T13:38:12.882Z,53.20
2022-08-28T13:40:09.286Z,54.30
2022-08-28T13:42:07.488Z,54.50
2022-08-28T13:43:58.301Z,53.90
2022-08-28T13:45:49.598Z,54.00
2022-08-28T13:47:41.705Z,53.10
2022-08-28T13:49:32.225Z,53.20
2022-08-28T13:51:23.922Z,53.80
2022-08-28T13:53:15.721Z,53.70
2022-08-28T13:55:07.301Z,53.40
2022-08-28T13:56:59.415Z,53.10
2022-08-28T13:58:57.273Z,52.70
2022-08-28T14:00:50.146Z,52.80
2022-08-28T14:02:42.748Z,52.10
2022-08-28T14:04:33.061Z,51.20
2022-08-28T14:06:24.496Z,52.20
2022-08-28T14:08:22.816Z,52.20
2022-08-28T14:10:13.509Z,51.40
2022-08-28T14:12:05.246Z,51.20
2022-08-28T14:13:56.115Z,50.90
2022-08-28T14:15:46.473Z,50.60
2022-08-28T14:17:37.571Z,50.30
2022-08-28T14:19:29.582Z,51.20
2022-08-28T14:21:20.710Z,51.70
2022-08-28T14:23:11.612Z,51.80
2022-08-28T14:25:03.474Z,52.00
2022-08-28T14:26:54.300Z,51.90
2022-08-28T14:28:45.179Z,51.00
2022-08-28T14:30:35.626Z,50.60
2022-08-28T14:32:26.188Z,50.40
2022-08-28T14:34:18.239Z,51.00
2022-08-28T14:36:14.970Z,51.30
2022-08-28T14:38:05.709Z,51.90
2022-08-28T14:39:56.410Z,52.70
2022-08-28T14:41:47.078Z,53.30
2022-08-28T14:43:38.515Z,53.90
2022-08-28T14:45:28.950Z,52.70
2022-08-28T14:47:19.890Z,52.10
2022-08-28T14:49:12.238Z,52.10
2022-08-28T14:51:03.028Z,51.90
2022-08-28T14:52:55.312Z,51.30
2022-08-28T14:54:45.938Z,51.60
2022-08-28T14:56:36.532Z,51.70
2022-08-28T14:58:27.535Z,51.80
2022-08-28T15:00:18.423Z,51.80
2022-08-28T15:02:08.948Z,51.30
2022-08-28T15:04:00.419Z,51.40
2022-08-28T15:06:00.025Z,50.60
2022-08-28T15:07:50.442Z,51.00
2022-08-28T15:09:43.196Z,50.70
2022-08-28T15:11:33.666Z,50.80
2022-08-28T15:13:24.207Z,50.40
2022-08-28T15:15:21.149Z,51.40
2022-08-28T15:17:11.559Z,50.60
2022-08-28T15:19:02.678Z,50.50
2022-08-28T15:20:53.213Z,50.60
2022-08-28T15:22:43.621Z,51.30
2022-08-28T15:24:33.995Z,50.80
2022-08-28T15:26:27.119Z,51.20
2022-08-28T15:28:17.984Z,51.30
2022-08-28T15:30:09.430Z,51.20
2022-08-28T15:32:00.093Z,50.70
2022-08-28T15:33:50.630Z,51.00
2022-08-28T15:35:41.219Z,51.10
2022-08-28T15:37:31.796Z,50.40
2022-08-28T15:39:22.523Z,50.10
2022-08-28T15:41:12.904Z,50.40
2022-08-28T15:43:05.166Z,50.70
2022-08-28T15:44:55.621Z,50.30
2022-08-28T15:46:50.147Z,49.80
2022-08-28T15:48:40.799Z,50.30
2022-08-28T15:50:32.470Z,50.30
2022-08-28T15:52:23.411Z,50.30
2022-08-28T15:54:14.048Z,49.90
2022-08-28T15:56:04.975Z,49.60
2022-08-28T15:57:56.052Z,49.70
2022-08-28T15:59:49.367Z,49.10
2022-08-28T16:01:41.239Z,49.10
2022-08-28T16:03:32.014Z,49.60
2022-08-28T16:05:22.410Z,48.90
2022-08-28T16:07:13.131Z,49.10
2022-08-28T16:09:04.776Z,49.40
2022-08-28T16:10:55.345Z,49.50
2022-08-28T16:12:47.979Z,50.20
2022-08-28T16:14:47.842Z,51.00
2022-08-28T16:16:38.774Z,51.70
2022-08-28T16:18:30.405Z,51.30
2022-08-28T16:20:21.003Z,50.80
2022-08-28T16:22:12.738Z,51.10
2022-08-28T16:24:03.886Z,51.50
2022-08-28T16:25:54.887Z,51.70
2022-08-28T16:27:45.718Z,51.40
2022-08-28T16:29:37.096Z,51.70
2022-08-28T16:31:29.177Z,51.80
2022-08-28T16:33:20.052Z,52.70
2022-08-28T16:35:10.813Z,54.30
2022-08-28T16:37:02.200Z,55.30
2022-08-28T16:39:00.514Z,56.70
2022-08-28T16:40:54.626Z,57.10
2022-08-28T16:42:52.010Z,57.30
2022-08-28T16:44:42.587Z,57.40
2022-08-28T16:46:34.311Z,57.90
2022-08-28T16:48:24.671Z,57.80
2022-08-28T16:50:15.967Z,58.50
2022-08-28T16:52:06.385Z,58.80
2022-08-28T16:53:57.307Z,59.00
2022-08-28T16:55:48.094Z,59.20
2022-08-28T16:57:39.308Z,58.90
2022-08-28T16:59:30.046Z,58.40
2022-08-28T17:01:21.088Z,58.60
2022-08-28T17:03:13.281Z,59.10
2022-08-28T17:05:04.875Z,59.30
2022-08-28T17:06:55.653Z,59.10
2022-08-28T17:08:54.538Z,59.20
2022-08-28T17:10:46.971Z,59.60
2022-08-28T17:12:37.609Z,59.30
2022-08-28T17:14:28.576Z,59.50
2022-08-28T17:16:20.787Z,59.60
2022-08-28T17:18:13.060Z,59.40
2022-08-28T17:20:05.670Z,59.00
2022-08-28T17:21:56.282Z,58.80
2022-08-28T17:23:47.231Z,58.50
2022-08-28T17:25:37.829Z,57.80
2022-08-28T17:27:28.863Z,57.50
2022-08-28T17:29:19.582Z,57.30
2022-08-28T17:31:10.963Z,57.10
2022-08-28T17:33:02.143Z,57.30
2022-08-28T17:34:53.983Z,57.90
2022-08-28T17:36:45.143Z,58.00
2022-08-28T17:38:36.632Z,58.20
2022-08-28T17:40:27.756Z,58.50
2022-08-28T17:42:18.391Z,59.20
2022-08-28T17:44:09.578Z,59.20
2022-08-28T17:46:00.727Z,59.90
2022-08-28T17:47:51.247Z,60.20
2022-08-28T17:49:42.147Z,60.60
2022-08-28T17:51:42.290Z,60.70
2022-08-28T17:53:34.708Z,61.10
2022-08-28T17:55:25.185Z,61.30
2022-08-28T17:57:15.954Z,61.60
2022-08-28T17:59:06.437Z,61.70
2022-08-28T18:00:56.972Z,62.10
2022-08-28T18:02:50.621Z,62.00
2022-08-28T18:04:45.121Z,62.10
2022-08-28T18:06:37.954Z,61.80
2022-08-28T18:08:29.118Z,61.70
2022-08-28T18:10:19.624Z,61.70
2022-08-28T18:12:12.679Z,62.10
2022-08-28T18:14:03.313Z,62.10
2022-08-28T18:15:56.936Z,62.10
2022-08-28T18:17:47.862Z,62.30
2022-08-28T18:19:38.815Z,62.70
2022-08-28T18:21:30.886Z,62.80
2022-08-28T18:23:23.011Z,63.00
2022-08-28T18:25:13.902Z,63.30
2022-08-28T18:27:05.323Z,63.30
2022-08-28T18:28:56.504Z,63.90
2022-08-28T18:30:48.555Z,63.90
2022-08-28T18:32:39.532Z,64.00
2022-08-28T18:34:30.238Z,64.30
2022-08-28T18:36:20.852Z,64.50
2022-08-28T18:38:12.842Z,65.00
2022-08-28T18:40:05.717Z,65.10
2022-08-28T18:41:56.905Z,65.30
2022-08-28T18:43:47.975Z,65.60
2022-08-28T18:45:39.009Z,65.50
2022-08-28T18:47:30.349Z,65.50
2022-08-28T18:49:21.077Z,65.70
2022-08-28T18:51:12.860Z,65.70
2022-08-28T18:53:04.967Z,65.60
2022-08-28T18:54:56.042Z,65.80
2022-08-28T18:56:52.966Z,65.70
2022-08-28T18:58:44.122Z,66.20
2022-08-28T19:00:35.179Z,66.30
2022-08-28T19:02:26.234Z,66.30
2022-08-28T19:04:17.194Z,66.10
2022-08-28T19:06:08.031Z,66.30
2022-08-28T19:07:59.076Z,66.40
2022-08-28T19:09:50.624Z,66.50
2022-08-28T19:11:41.103Z,66.50
2022-08-28T19:13:33.044Z,66.40
2022-08-28T19:15:23.769Z,66.30
2022-08-28T19:17:19.040Z,66.00
2022-08-28T19:19:11.981Z,66.10
2022-08-28T19:21:04.222Z,66.40
2022-08-28T19:22:54.761Z,66.40
2022-08-28T19:24:45.207Z,66.40
2022-08-28T19:26:36.119Z,66.50
2022-08-28T19:28:28.030Z,66.70
2022-08-28T19:30:20.702Z,66.60
2022-08-28T19:32:13.111Z,66.50
2022-08-28T19:34:03.881Z,66.50
2022-08-28T19:35:54.600Z,66.50
2022-08-28T19:37:45.317Z,66.50
2022-08-28T19:39:36.131Z,66.90
2022-08-28T19:41:26.929Z,66.90
2022-08-28T19:43:20.733Z,66.80
2022-08-28T19:45:13.697Z,66.90
2022-08-28T19:47:06.028Z,67.30
2022-08-28T19:48:56.838Z,67.40
2022-08-28T19:50:47.833Z,67.50
2022-08-28T19:52:38.904Z,67.60
2022-08-28T19:54:30.034Z,67.60
2022-08-28T19:56:20.724Z,67.50
2022-08-28T19:58:11.722Z,67.50
2022-08-28T20:00:02.480Z,67.60
2022-08-28T20:01:53.148Z,67.60
2022-08-28T20:03:45.656Z,67.40
2022-08-28T20:05:38.383Z,67.30
2022-08-28T20:07:31.277Z,67.60
2022-08-28T20:09:21.985Z,67.80
2022-08-28T20:11:16.743Z,67.70
2022-08-28T20:13:07.513Z,67.80
2022-08-28T20:15:03.130Z,67.70
2022-08-28T20:17:01.834Z,67.60
2022-08-28T20:18:57.383Z,67.80
2022-08-28T20:20:49.460Z,67.80
2022-08-28T20:22:43.310Z,68.10
2022-08-28T20:24:34.214Z,68.20
2022-08-28T20:26:25.327Z,68.20
2022-08-28T20:28:19.569Z,68.20
2022-08-28T20:30:15.325Z,68.10
2022-08-28T20:32:06.250Z,68.60
2022-08-28T20:33:59.505Z,68.90
2022-08-28T20:36:00.717Z,68.90
2022-08-28T20:37:51.201Z,68.80
2022-08-28T20:39:43.599Z,69.00
2022-08-28T20:41:34.102Z,69.10
2022-08-28T20:43:26.567Z,69.10
2022-08-28T20:45:18.471Z,69.10
2022-08-28T20:47:09.485Z,69.50
2022-08-28T20:49:06.656Z,69.70
2022-08-28T20:50:57.514Z,69.70
2022-08-28T20:52:49.607Z,69.80
2022-08-28T20:54:40.877Z,69.70
2022-08-28T20:56:31.579Z,69.80
2022-08-28T20:58:22.655Z,69.80
2022-08-28T21:00:15.046Z,69.80
2022-08-28T21:02:06.727Z,70.00
2022-08-28T21:03:57.351Z,70.20
2022-08-28T21:05:49.887Z,70.30
2022-08-28T21:07:40.588Z,70.40
2022-08-28T21:09:39.559Z,70.40
2022-08-28T21:11:42.237Z,70.50
2022-08-28T21:13:32.928Z,70.40
2022-08-28T21:15:23.687Z,70.40
2022-08-28T21:17:14.114Z,70.30
2022-08-28T21:19:16.379Z,70.60
2022-08-28T21:21:08.711Z,70.80
2022-08-28T21:23:00.432Z,70.80
2022-08-28T21:24:50.841Z,70.80
2022-08-28T21:26:42.675Z,70.80
2022-08-28T21:28:33.285Z,70.80
2022-08-28T21:30:24.085Z,70.80
2022-08-28T21:32:20.361Z,71.00
2022-08-28T21:34:11.123Z,71.40
2022-08-28T21:36:01.667Z,71.40
2022-08-28T21:37:53.730Z,71.50
2022-08-28T21:39:44.405Z,71.50
2022-08-28T21:41:34.942Z,71.60
2022-08-28T21:43:25.257Z,71.80
2022-08-28T21:45:22.508Z,71.80
2022-08-28T21:47:12.955Z,71.80
2022-08-28T21:49:03.856Z,71.90
2022-08-28T21:50:54.340Z,72.00
2022-08-28T21:52:46.055Z,72.10
2022-08-28T21:54:37.970Z,72.10
2022-08-28T21:56:28.594Z,72.20
2022-08-28T21:58:20.435Z,72.30
2022-08-28T22:00:15.121Z,72.40
2022-08-28T22:02:06.109Z,72.30
2022-08-28T22:03:56.821Z,72.40
2022-08-28T22:05:49.817Z,72.50
2022-08-28T22:07:40.616Z,72.50
2022-08-28T22:09:31.415Z,72.70
2022-08-28T22:11:25.070Z,72.60
2022-08-28T22:13:16.928Z,72.50
2022-08-28T22:15:08.238Z,72.70
2022-08-28T22:16:58.670Z,73.00
2022-08-28T22:18:49.574Z,72.90
2022-08-28T22:20:41.569Z,73.20
2022-08-28T22:22:31.920Z,72.80
2022-08-28T22:24:22.623Z,72.50
2022-08-28T22:26:15.485Z,72.70
2022-08-28T22:28:07.581Z,72.90
2022-08-28T22:29:58.483Z,72.80
2022-08-28T22:31:48.899Z,72.50
2022-08-28T22:33:39.239Z,72.40
2022-08-28T22:35:30.123Z,72.30
2022-08-28T22:37:20.666Z,72.10
2022-08-28T22:39:10.835Z,72.20
2022-08-28T22:41:01.218Z,72.30
2022-08-28T22:42:52.679Z,72.40
2022-08-28T22:44:44.688Z,72.60
2022-08-28T22:46:35.262Z,72.60
2022-08-28T22:48:25.883Z,72.30
2022-08-28T22:50:17.059Z,72.60
2022-08-28T22:52:10.152Z,72.80
2022-08-28T22:54:01.001Z,73.00
2022-08-28T22:55:51.620Z,72.90
2022-08-28T22:57:42.532Z,72.70
2022-08-28T22:59:33.301Z,72.90
2022-08-28T23:01:26.180Z,72.80
2022-08-28T23:03:17.021Z,73.10
2022-08-28T23:05:08.032Z,72.90
2022-08-28T23:06:58.299Z,72.80
2022-08-28T23:08:48.657Z,73.10
2022-08-28T23:10:57.980Z,73.00
2022-08-28T23:12:49.671Z,73.10
2022-08-28T23:14:40.418Z,73.20
2022-08-28T23:16:32.592Z,73.00
2022-08-28T23:18:26.273Z,72.90
2022-08-28T23:20:21.455Z,72.90
2022-08-28T23:22:12.412Z,72.70
2022-08-28T23:24:03.563Z,72.70
2022-08-28T23:25:54.486Z,72.90
2022-08-28T23:27:46.049Z,73.00
2022-08-28T23:29:37.259Z,73.10
2022-08-28T23:31:28.066Z,73.10
2022-08-28T23:33:23.698Z,73.00
2022-08-28T23:35:15.814Z,72.90
2022-08-28T23:37:06.237Z,73.00
2022-08-28T23:38:56.956Z,72.90
2022-08-28T23:40:48.274Z,73.10
2022-08-28T23:42:41.251Z,73.20
2022-08-28T23:44:32.100Z,73.30
2022-08-28T23:46:23.080Z,73.30
2022-08-28T23:48:13.936Z,73.40
2022-08-28T23:50:07.630Z,73.30
2022-08-28T23:51:58.020Z,73.50
2022-08-28T23:53:50.135Z,73.80
2022-08-28T23:55:41.822Z,74.00
2022-08-28T23:57:32.891Z,74.10
2022-08-28T23:59:23.227Z,74.00
